createdAt,value
2022-11-02T00:00:52.454Z,8.66
2022-11-02T00:03:20.439Z,8.43
2022-11-02T00:05:48.665Z,8.16
2022-11-02T00:08:16.761Z,8.03
2022-11-02T00:10:44.983Z,8.01
2022-11-02T00:13:13.266Z,8.05
2022-11-02T00:15:42.733Z,8.06
2022-11-02T00:18:12.579Z,8.01
2022-11-02T00:20:41.716Z,8.10
2022-11-02T00:23:13.398Z,7.96
2022-11-02T00:25:42.637Z,8.09
2022-11-02T00:28:11.063Z,8.23
2022-11-02T00:30:39.199Z,8.25
2022-11-02T00:33:08.563Z,7.96
2022-11-02T00:35:36.922Z,8.01
2022-11-02T00:38:05.365Z,8.09
2022-11-02T00:40:33.668Z,8.12
2022-11-02T00:43:01.825Z,8.06
2022-11-02T00:45:29.808Z,8.10
2022-11-02T00:47:57.791Z,8.10
2022-11-02T00:50:27.190Z,8.19
2022-11-02T00:52:55.181Z,8.48
2022-11-02T00:55:25.028Z,8.41
2022-11-02T00:57:55.799Z,8.61
2022-11-02T01:00:23.866Z,8.92
2022-11-02T01:02:51.877Z,8.53
2022-11-02T01:05:22.169Z,8.23
2022-11-02T01:07:51.482Z,7.68
2022-11-02T01:10:19.522Z,7.35
2022-11-02T01:12:48.131Z,7.32
2022-11-02T01:15:16.201Z,7.34
2022-11-02T01:17:44.346Z,7.34
2022-11-02T01:20:12.563Z,7.72
2022-11-02T01:22:40.541Z,7.74
2022-11-02T01:25:10.177Z,7.93
2022-11-02T01:27:38.135Z,8.05
2022-11-02T01:30:09.148Z,8.48
2022-11-02T01:32:37.661Z,8.35
2022-11-02T01:35:05.978Z,8.54
2022-11-02T01:37:36.318Z,8.57
2022-11-02T01:40:04.537Z,8.46
2022-11-02T01:42:35.973Z,9.11
2022-11-02T01:45:04.095Z,8.74
2022-11-02T01:47:36.817Z,9.17
2022-11-02T01:50:07.570Z,9.03
2022-11-02T01:52:38.024Z,9.14
2022-11-02T01:55:08.837Z,8.80
2022-11-02T01:57:39.038Z,8.94
2022-11-02T02:00:09.572Z,8.93
2022-11-02T02:02:46.721Z,8.87
2022-11-02T02:05:15.944Z,8.85
2022-11-02T02:07:44.952Z,8.80
2022-11-02T02:10:13.469Z,8.88
2022-11-02T02:12:44.079Z,8.77
2022-11-02T02:15:15.288Z,8.75
2022-11-02T02:17:45.835Z,8.84
2022-11-02T02:20:21.335Z,8.75
2022-11-02T02:23:03.536Z,8.83
2022-11-02T02:25:46.340Z,8.86
2022-11-02T02:28:20.467Z,9.09
2022-11-02T02:30:51.423Z,9.09
2022-11-02T02:33:26.051Z,8.99
2022-11-02T02:35:59.507Z,9.24
2022-11-02T02:38:30.236Z,9.23
2022-11-02T02:41:00.057Z,9.00
2022-11-02T02:43:33.771Z,8.94
2022-11-02T02:46:02.518Z,9.00
2022-11-02T02:48:30.682Z,8.96
2022-11-02T02:51:03.017Z,9.13
2022-11-02T02:53:34.358Z,9.09
2022-11-02T02:56:04.233Z,9.16
2022-11-02T02:58:38.190Z,9.48
2022-11-02T03:01:07.222Z,9.45
2022-11-02T03:03:36.426Z,9.64
2022-11-02T03:06:06.215Z,9.61
2022-11-02T03:08:37.815Z,9.52
2022-11-02T03:11:11.484Z,9.81
2022-11-02T03:13:47.790Z,9.33
2022-11-02T03:16:23.801Z,9.61
2022-11-02T03:18:55.214Z,9.85
2022-11-02T03:21:26.902Z,9.39
2022-11-02T03:23:57.162Z,9.83
2022-11-02T03:26:30.585Z,9.77
2022-11-02T03:29:05.645Z,9.46
2022-11-02T03:31:37.189Z,9.54
2022-11-02T03:34:10.379Z,9.49
2022-11-02T03:36:41.994Z,10.00
2022-11-02T03:39:11.643Z,9.45
2022-11-02T03:41:41.929Z,9.54
2022-11-02T03:44:13.947Z,9.34
2022-11-02T03:46:44.409Z,9.25
2022-11-02T03:49:15.934Z,9.08
2022-11-02T03:51:46.173Z,9.14
2022-11-02T03:54:18.991Z,9.21
2022-11-02T03:56:52.342Z,9.47
2022-11-02T03:59:25.160Z,9.12
2022-11-02T04:01:53.742Z,9.04
2022-11-02T04:04:24.132Z,9.00
2022-11-02T04:06:52.829Z,9.18
2022-11-02T04:09:20.829Z,9.09
2022-11-02T04:12:06.521Z,9.61
2022-11-02T04:14:41.463Z,9.14
2022-11-02T04:17:32.579Z,9.24
2022-11-02T04:20:03.143Z,9.32
2022-11-02T04:22:48.991Z,9.17
2022-11-02T04:25:22.224Z,9.11
2022-11-02T04:28:10.477Z,9.28
2022-11-02T04:30:46.067Z,9.22
2022-11-02T04:33:32.176Z,9.05
2022-11-02T04:36:20.457Z,9.24
2022-11-02T04:38:52.769Z,9.28
2022-11-02T04:41:44.837Z,9.22
2022-11-02T04:44:18.591Z,9.16
2022-11-02T04:46:54.609Z,8.77
2022-11-02T04:49:26.573Z,8.51
2022-11-02T04:51:55.451Z,8.97
2022-11-02T04:54:23.433Z,8.81
2022-11-02T04:56:57.049Z,8.81
2022-11-02T04:59:26.950Z,9.20
2022-11-02T05:01:56.469Z,9.09
2022-11-02T05:04:24.617Z,9.11
2022-11-02T05:06:53.770Z,9.25
2022-11-02T05:09:24.566Z,8.66
2022-11-02T05:11:53.451Z,8.76
2022-11-02T05:14:21.498Z,8.75
2022-11-02T05:16:49.531Z,8.46
2022-11-02T05:19:18.935Z,8.99
2022-11-02T05:21:47.155Z,8.59
2022-11-02T05:24:15.211Z,8.88
2022-11-02T05:26:43.294Z,8.97
2022-11-02T05:29:11.326Z,9.23
2022-11-02T05:31:39.321Z,9.32
2022-11-02T05:34:07.960Z,9.93
2022-11-02T05:36:39.838Z,9.60
2022-11-02T05:39:08.492Z,9.77
2022-11-02T05:41:36.559Z,10.07
2022-11-02T05:44:05.702Z,10.06
2022-11-02T05:46:35.700Z,9.93
2022-11-02T05:49:03.738Z,9.93
2022-11-02T05:51:31.773Z,10.07
2022-11-02T05:54:01.278Z,10.55
2022-11-02T05:56:29.279Z,10.60
2022-11-02T05:58:57.260Z,10.65
2022-11-02T06:01:27.599Z,10.82
2022-11-02T06:03:55.653Z,11.15
2022-11-02T06:06:23.667Z,11.36
2022-11-02T06:08:51.667Z,10.88
2022-11-02T06:11:21.057Z,10.91
2022-11-02T06:13:50.428Z,10.64
2022-11-02T06:16:22.655Z,10.72
2022-11-02T06:18:51.539Z,10.53
2022-11-02T06:21:19.557Z,10.52
2022-11-02T06:23:48.253Z,10.49
2022-11-02T06:26:16.536Z,10.34
2022-11-02T06:28:46.061Z,10.91
2022-11-02T06:31:17.169Z,10.60
2022-11-02T06:33:45.413Z,10.70
2022-11-02T06:36:13.491Z,10.56
2022-11-02T06:38:41.969Z,10.62
2022-11-02T06:41:10.327Z,10.65
2022-11-02T06:43:39.901Z,10.64
2022-11-02T06:46:09.281Z,10.68
2022-11-02T06:48:37.309Z,11.40
2022-11-02T06:51:06.240Z,10.98
2022-11-02T06:53:34.214Z,10.99
2022-11-02T06:56:02.294Z,10.85
2022-11-02T06:58:30.590Z,10.99
2022-11-02T07:00:59.359Z,11.13
2022-11-02T07:03:29.150Z,10.72
2022-11-02T07:05:57.135Z,10.73
2022-11-02T07:08:27.128Z,11.11
2022-11-02T07:10:57.654Z,10.65
2022-11-02T07:13:25.756Z,11.09
2022-11-02T07:15:54.363Z,11.27
2022-11-02T07:18:24.426Z,11.30
2022-11-02T07:20:58.902Z,11.43
2022-11-02T07:23:27.366Z,11.67
2022-11-02T07:25:55.334Z,11.50
2022-11-02T07:28:23.301Z,11.65
2022-11-02T07:30:54.571Z,11.79
2022-11-02T07:33:22.639Z,11.52
2022-11-02T07:35:50.643Z,11.91
2022-11-02T07:38:20.043Z,11.63
2022-11-02T07:40:49.619Z,11.53
2022-11-02T07:43:17.646Z,11.86
2022-11-02T07:45:56.110Z,11.93
2022-11-02T07:48:26.186Z,12.02
2022-11-02T07:50:54.193Z,12.42
2022-11-02T07:53:23.833Z,12.07
2022-11-02T07:55:51.834Z,12.05
2022-11-02T07:58:19.815Z,12.23
2022-11-02T08:00:47.837Z,12.01
2022-11-02T08:03:15.896Z,11.87
2022-11-02T08:05:44.534Z,12.10
2022-11-02T08:08:14.061Z,12.26
2022-11-02T08:10:44.024Z,12.28
2022-11-02T08:13:13.369Z,12.03
2022-11-02T08:15:41.424Z,12.48
2022-11-02T08:18:13.468Z,12.71
2022-11-02T08:20:41.453Z,12.44
2022-11-02T08:23:10.676Z,12.72
2022-11-02T08:25:39.213Z,12.79
2022-11-02T08:28:12.312Z,12.87
2022-11-02T08:30:40.315Z,12.93
2022-11-02T08:33:11.078Z,12.92
2022-11-02T08:35:39.230Z,12.86
2022-11-02T08:38:08.073Z,12.86
2022-11-02T08:40:36.983Z,13.06
2022-11-02T08:43:06.694Z,13.00
2022-11-02T08:46:08.334Z,12.97
2022-11-02T08:48:24.926Z,12.90
2022-11-02T08:50:52.878Z,12.99
2022-11-02T08:53:20.858Z,13.27
2022-11-02T08:55:48.877Z,13.20
2022-11-02T08:58:18.439Z,13.23
2022-11-02T09:00:47.991Z,13.24
2022-11-02T09:03:19.539Z,13.46
2022-11-02T09:05:50.064Z,13.39
2022-11-02T09:08:18.938Z,13.35
2022-11-02T09:10:50.193Z,13.50
2022-11-02T09:13:20.823Z,13.33
2022-11-02T09:15:52.302Z,13.60
2022-11-02T09:18:20.412Z,13.46
2022-11-02T09:20:48.981Z,13.61
2022-11-02T09:23:17.067Z,13.35
2022-11-02T09:25:47.485Z,13.34
2022-11-02T09:28:17.779Z,13.55
2022-11-02T09:30:46.348Z,13.47
2022-11-02T09:33:18.618Z,13.54
2022-11-02T09:35:49.318Z,13.48
2022-11-02T09:38:19.805Z,13.35
2022-11-02T09:40:53.231Z,13.32
2022-11-02T09:43:32.862Z,13.43
2022-11-02T09:46:06.077Z,13.43
2022-11-02T09:48:38.798Z,13.62
2022-11-02T09:51:09.843Z,13.46
2022-11-02T09:53:49.140Z,13.50
2022-11-02T09:56:20.482Z,13.32
2022-11-02T09:58:50.567Z,13.56
2022-11-02T10:01:25.232Z,13.53
2022-11-02T10:04:09.387Z,13.24
2022-11-02T10:06:43.196Z,13.34
2022-11-02T10:09:19.989Z,13.51
2022-11-02T10:11:56.423Z,13.52
2022-11-02T10:14:30.994Z,13.14
2022-11-02T10:17:06.778Z,13.23
2022-11-02T10:19:40.887Z,13.32
2022-11-02T10:22:13.999Z,13.11
2022-11-02T10:24:44.877Z,13.15
2022-11-02T10:27:18.348Z,13.12
2022-11-02T10:29:50.117Z,13.37
2022-11-02T10:32:20.915Z,13.60
2022-11-02T10:34:58.983Z,13.60
2022-11-02T10:37:39.945Z,13.90
2022-11-02T10:40:13.727Z,13.67
2022-11-02T10:42:50.167Z,14.12
2022-11-02T10:45:38.536Z,13.85
2022-11-02T10:48:11.646Z,13.91
2022-11-02T10:50:47.524Z,13.73
2022-11-02T10:56:09.430Z,13.95
2022-11-02T10:58:39.714Z,13.56
2022-11-02T11:01:08.597Z,13.99
2022-11-02T11:03:53.415Z,13.85
2022-11-02T11:06:23.504Z,13.83
2022-11-02T11:08:53.514Z,14.04
2022-11-02T11:11:26.173Z,14.22
2022-11-02T11:16:45.843Z,14.40
2022-11-02T11:22:24.088Z,14.04
2022-11-02T11:24:54.418Z,14.13
2022-11-02T11:27:23.126Z,14.53
2022-11-02T11:29:53.618Z,14.50
2022-11-02T11:32:27.222Z,15.07
2022-11-02T11:34:59.497Z,14.90
2022-11-02T11:37:28.947Z,14.65
2022-11-02T11:39:59.260Z,14.54
2022-11-02T11:42:29.043Z,14.36
2022-11-02T11:45:02.663Z,14.65
2022-11-02T11:47:33.461Z,14.51
2022-11-02T11:50:10.359Z,15.02
2022-11-02T11:52:44.562Z,15.38
2022-11-02T11:55:23.171Z,15.05
2022-11-02T11:58:05.880Z,15.35
2022-11-02T12:00:34.618Z,15.05
2022-11-02T12:03:06.065Z,15.41
2022-11-02T12:05:51.865Z,15.16
2022-11-02T12:08:32.911Z,15.52
2022-11-02T12:11:14.928Z,15.44
2022-11-02T12:13:56.970Z,15.17
2022-11-02T12:16:30.605Z,15.45
2022-11-02T12:19:08.042Z,15.76
2022-11-02T12:21:43.103Z,15.34
2022-11-02T12:24:20.881Z,15.25
2022-11-02T12:26:53.821Z,15.44
2022-11-02T12:29:37.182Z,15.49
2022-11-02T12:32:08.870Z,15.66
2022-11-02T12:35:02.962Z,15.42
2022-11-02T12:37:43.376Z,15.43
2022-11-02T12:43:09.275Z,15.68
2022-11-02T12:45:42.560Z,15.78
2022-11-02T12:48:12.658Z,15.69
2022-11-02T12:50:51.019Z,15.46
2022-11-02T12:53:35.884Z,15.60
2022-11-02T12:56:07.425Z,16.05
2022-11-02T12:58:36.666Z,15.70
2022-11-02T13:01:13.395Z,15.79
2022-11-02T13:03:49.633Z,15.68
2022-11-02T13:06:19.719Z,15.43
2022-11-02T13:08:50.776Z,15.70
2022-11-02T13:11:23.443Z,15.72
2022-11-02T13:13:53.472Z,15.50
2022-11-02T13:16:25.308Z,15.73
2022-11-02T13:18:54.653Z,15.48
2022-11-02T13:21:28.111Z,16.02
2022-11-02T13:23:58.382Z,15.80
2022-11-02T13:26:30.070Z,15.81
2022-11-02T13:29:00.902Z,16.14
2022-11-02T13:31:31.036Z,15.77
2022-11-02T13:34:01.213Z,15.70
2022-11-02T13:36:29.423Z,15.94
2022-11-02T13:39:00.531Z,15.69
2022-11-02T13:41:42.349Z,15.91
2022-11-02T13:44:34.111Z,15.67
2022-11-02T13:47:08.259Z,15.55
2022-11-02T13:49:37.474Z,15.87
2022-11-02T13:52:10.735Z,15.90
2022-11-02T13:54:44.366Z,15.96
2022-11-02T13:57:23.781Z,15.68
2022-11-02T13:59:51.805Z,16.04
2022-11-02T14:02:21.314Z,15.72
2022-11-02T14:04:49.815Z,16.00
2022-11-02T14:07:23.533Z,15.77
2022-11-02T14:09:51.970Z,15.79
2022-11-02T14:12:43.914Z,15.60
2022-11-02T14:15:30.864Z,15.20
2022-11-02T14:18:03.900Z,15.68
2022-11-02T14:20:33.908Z,15.91
2022-11-02T14:23:22.617Z,15.13
2022-11-02T14:25:51.265Z,15.24
2022-11-02T14:28:33.785Z,15.43
2022-11-02T14:31:22.673Z,15.58
2022-11-02T14:33:59.481Z,15.01
2022-11-02T14:36:39.621Z,15.79
2022-11-02T14:39:14.802Z,15.37
2022-11-02T14:41:57.058Z,15.13
2022-11-02T14:44:45.321Z,15.20
2022-11-02T14:47:17.058Z,15.11
2022-11-02T14:49:49.615Z,15.08
2022-11-02T14:52:28.549Z,15.10
2022-11-02T14:55:01.483Z,15.16
2022-11-02T14:57:30.828Z,14.95
2022-11-02T15:00:02.442Z,15.23
2022-11-02T15:02:37.266Z,14.63
2022-11-02T15:05:09.284Z,14.86
2022-11-02T15:07:40.139Z,14.83
2022-11-02T15:10:28.498Z,14.60
2022-11-02T15:13:16.755Z,14.35
2022-11-02T15:15:46.640Z,13.98
2022-11-02T15:18:21.678Z,14.72
2022-11-02T15:21:04.550Z,14.69
2022-11-02T15:23:35.828Z,14.13
2022-11-02T15:26:06.294Z,13.50
2022-11-02T15:28:35.842Z,14.06
2022-11-02T15:31:08.110Z,14.12
2022-11-02T15:33:37.911Z,14.05
2022-11-02T15:36:07.402Z,14.12
2022-11-02T15:38:40.174Z,14.01
2022-11-02T15:41:18.779Z,13.52
2022-11-02T15:44:00.385Z,13.66
2022-11-02T15:46:38.481Z,13.41
2022-11-02T15:49:16.374Z,13.17
2022-11-02T15:51:50.929Z,13.23
2022-11-02T15:54:24.458Z,13.12
2022-11-02T15:56:59.945Z,13.18
2022-11-02T15:59:40.879Z,12.98
2022-11-02T16:02:19.519Z,12.58
2022-11-02T16:04:48.154Z,12.68
2022-11-02T16:07:17.433Z,12.25
2022-11-02T16:09:46.523Z,12.27
2022-11-02T16:12:16.624Z,12.19
2022-11-02T16:14:45.061Z,11.72
2022-11-02T16:17:25.643Z,11.65
2022-11-02T16:19:54.589Z,12.09
2022-11-02T16:22:26.960Z,11.97
2022-11-02T16:24:55.419Z,11.89
2022-11-02T16:27:23.611Z,11.67
2022-11-02T16:29:51.843Z,11.95
2022-11-02T16:32:20.053Z,11.77
2022-11-02T16:34:51.679Z,11.47
2022-11-02T16:37:20.128Z,11.46
2022-11-02T16:39:48.490Z,11.70
2022-11-02T16:42:17.649Z,11.23
2022-11-02T16:44:55.126Z,10.90
2022-11-02T16:47:30.634Z,11.13
2022-11-02T16:50:00.249Z,11.09
2022-11-02T16:52:31.008Z,10.76
2022-11-02T16:54:59.043Z,10.88
2022-11-02T16:57:28.578Z,10.56
2022-11-02T16:59:57.292Z,10.53
2022-11-02T17:02:36.447Z,10.18
2022-11-02T17:05:07.386Z,9.99
2022-11-02T17:07:36.774Z,9.98
2022-11-02T17:10:07.855Z,9.91
2022-11-02T17:12:37.771Z,9.76
2022-11-02T17:15:17.754Z,9.83
2022-11-02T17:17:48.446Z,10.13
2022-11-02T17:20:22.691Z,10.25
2022-11-02T17:22:54.754Z,9.97
2022-11-02T17:25:23.650Z,9.95
2022-11-02T17:27:52.396Z,10.32
2022-11-02T17:30:38.803Z,10.05
2022-11-02T17:33:09.324Z,9.88
2022-11-02T17:35:45.527Z,9.84
2022-11-02T17:38:13.687Z,9.81
2022-11-02T17:40:42.062Z,9.87
2022-11-02T17:43:09.068Z,9.61
2022-11-02T17:45:38.410Z,9.79
2022-11-02T17:48:07.852Z,9.61
2022-11-02T17:50:37.550Z,9.62
2022-11-02T17:53:07.288Z,9.61
2022-11-02T17:55:37.259Z,9.52
2022-11-02T17:58:08.140Z,9.38
2022-11-02T18:00:36.926Z,9.42
2022-11-02T18:03:05.058Z,9.32
2022-11-02T18:05:35.937Z,9.44
2022-11-02T18:08:05.230Z,9.08
2022-11-02T18:10:37.730Z,9.21
2022-11-02T18:13:06.050Z,9.14
2022-11-02T18:15:34.607Z,9.07
2022-11-02T18:18:02.631Z,9.00
2022-11-02T18:20:31.890Z,9.43
2022-11-02T18:23:00.709Z,9.48
2022-11-02T18:25:30.147Z,8.89
2022-11-02T18:28:00.216Z,8.77
2022-11-02T18:30:28.938Z,8.98
2022-11-02T18:32:57.553Z,8.83
2022-11-02T18:35:25.981Z,8.85
2022-11-02T18:37:53.938Z,8.72
2022-11-02T18:40:22.039Z,8.91
2022-11-02T18:42:50.775Z,8.78
2022-11-02T18:45:20.345Z,8.77
2022-11-02T18:47:48.336Z,8.71
2022-11-02T18:50:16.349Z,8.57
2022-11-02T18:52:48.846Z,8.78
2022-11-02T18:55:19.297Z,8.82
2022-11-02T18:57:50.706Z,8.82
2022-11-02T19:00:20.660Z,8.45
2022-11-02T19:02:48.674Z,8.92
2022-11-02T19:05:34.405Z,8.90
2022-11-02T19:08:18.952Z,8.68
2022-11-02T19:10:49.353Z,8.40
2022-11-02T19:13:17.370Z,8.12
2022-11-02T19:15:46.682Z,8.07
2022-11-02T19:18:14.691Z,7.99
2022-11-02T19:20:42.683Z,7.85
2022-11-02T19:23:12.761Z,7.81
2022-11-02T19:25:40.790Z,7.92
2022-11-02T19:28:09.003Z,7.85
2022-11-02T19:30:38.151Z,7.69
2022-11-02T19:33:09.813Z,7.67
2022-11-02T19:35:37.806Z,7.81
2022-11-02T19:38:05.843Z,7.68
2022-11-02T19:40:34.337Z,7.74
2022-11-02T19:43:02.624Z,7.89
2022-11-02T19:45:30.767Z,7.56
2022-11-02T19:47:58.858Z,7.15
2022-11-02T19:50:28.413Z,7.38
2022-11-02T19:52:56.434Z,7.39
2022-11-02T19:55:28.604Z,7.51
2022-11-02T19:57:56.579Z,7.62
2022-11-02T20:00:24.588Z,7.48
2022-11-02T20:02:52.736Z,7.58
2022-11-02T20:05:20.796Z,7.39
2022-11-02T20:07:51.957Z,7.43
2022-11-02T20:10:20.120Z,7.44
2022-11-02T20:12:48.172Z,7.16
2022-11-02T20:15:16.204Z,7.36
2022-11-02T20:18:05.557Z,7.61
2022-11-02T20:20:33.409Z,6.91
2022-11-02T20:23:03.036Z,6.96
2022-11-02T20:25:31.044Z,7.21
2022-11-02T20:27:59.006Z,7.15
2022-11-02T20:30:27.284Z,7.06
2022-11-02T20:32:55.241Z,7.08
2022-11-02T20:35:25.899Z,7.10
2022-11-02T20:37:54.790Z,6.91
2022-11-02T20:40:24.622Z,7.08
2022-11-02T20:42:52.729Z,7.24
2022-11-02T20:45:20.761Z,7.20
2022-11-02T20:47:49.035Z,7.14
2022-11-02T20:50:19.424Z,7.31
2022-11-02T20:52:50.074Z,7.16
2022-11-02T20:55:18.077Z,7.04
2022-11-02T20:57:50.091Z,7.08
2022-11-02T21:00:18.889Z,6.66
2022-11-02T21:02:47.183Z,6.80
2022-11-02T21:05:15.687Z,7.01
2022-11-02T21:07:43.672Z,7.31
2022-11-02T21:10:11.963Z,7.44
2022-11-02T21:12:56.739Z,7.89
2022-11-02T21:15:29.983Z,7.62
2022-11-02T21:17:57.971Z,6.96
2022-11-02T21:20:33.969Z,7.05
2022-11-02T21:23:02.755Z,6.92
2022-11-02T21:25:31.770Z,7.07
2022-11-02T21:28:00.183Z,7.19
2022-11-02T21:30:30.918Z,7.30
2022-11-02T21:32:59.354Z,7.51
2022-11-02T21:35:28.610Z,7.15
2022-11-02T21:37:59.283Z,7.11
2022-11-02T21:40:30.370Z,6.47
2022-11-02T21:42:58.530Z,6.45
2022-11-02T21:45:26.586Z,6.60
2022-11-02T21:47:56.449Z,6.45
2022-11-02T21:50:24.519Z,6.51
2022-11-02T21:52:52.520Z,6.42
2022-11-02T21:55:20.588Z,6.51
2022-11-02T21:57:48.654Z,6.49
2022-11-02T22:02:38.177Z,6.07
2022-11-02T22:05:06.764Z,6.30
2022-11-02T22:07:54.762Z,6.35
2022-11-02T22:10:23.203Z,6.36
2022-11-02T22:13:08.765Z,6.50
2022-11-02T22:15:38.460Z,6.33
2022-11-02T22:18:08.019Z,6.53
2022-11-02T22:20:36.027Z,6.36
2022-11-02T22:23:04.352Z,6.44
2022-11-02T22:25:33.155Z,6.36
2022-11-02T22:28:01.417Z,6.43
2022-11-02T22:30:29.816Z,6.93
2022-11-02T22:32:57.825Z,6.71
2022-11-02T22:35:27.290Z,6.49
2022-11-02T22:38:13.006Z,6.35
2022-11-02T22:40:41.013Z,6.27
2022-11-02T22:43:09.421Z,6.36
2022-11-02T22:45:37.556Z,6.34
2022-11-02T22:48:05.595Z,6.31
2022-11-02T22:50:34.996Z,6.33
2022-11-02T22:53:03.245Z,6.33
2022-11-02T22:55:31.708Z,6.29
2022-11-02T22:58:00.074Z,6.28
2022-11-02T23:00:28.190Z,6.20
2022-11-02T23:02:56.229Z,6.07
2022-11-02T23:05:24.356Z,6.08
2022-11-02T23:07:53.752Z,6.00
2022-11-02T23:10:35.642Z,5.97
2022-11-02T23:13:04.112Z,5.98
2022-11-02T23:15:32.817Z,6.01
2022-11-02T23:18:01.238Z,6.06
2022-11-02T23:20:28.368Z,6.03
2022-11-02T23:23:17.899Z,6.14
2022-11-02T23:25:45.891Z,6.29
2022-11-02T23:28:31.668Z,6.40
2022-11-02T23:31:17.080Z,6.47
2022-11-02T23:33:45.059Z,6.50
2022-11-02T23:36:12.690Z,6.33
2022-11-02T23:39:00.387Z,6.36
2022-11-02T23:41:29.436Z,6.15
2022-11-02T23:44:11.656Z,6.20
2022-11-02T23:46:40.589Z,6.21
2022-11-02T23:49:08.618Z,6.20
2022-11-02T23:51:57.297Z,6.13
2022-11-02T23:54:44.080Z,6.09
2022-11-02T23:57:12.643Z,6.12
2022-11-02T23:59:42.781Z,6.12
